sensor_id;sensor_type;location;lat;lon;timestamp;pressure;altitude;pressure_sealevel;temperature;humidity
54453;BME280;40363;52.270;10.546;2022-10-22T00:01:05;76041.25;;;-147.06;100.00
54453;BME280;40363;52.270;10.546;2022-10-22T00:03:32;76047.41;;;-147.06;100.00
54453;BME280;40363;52.270;10.546;2022-10-22T00:06:02;76043.31;;;-147.06;100.00
54453;BME280;40363;52.270;10.546;2022-10-22T00:08:31;76041.25;;;-147.06;100.00
54453;BME280;40363;52.270;10.546;2022-10-22T00:10:58;76045.34;;;-147.06;100.00
54453;BME280;40363;52.270;10.546;2022-10-22T00:13:24;76037.13;;;-147.06;100.00
54453;BME280;40363;52.270;10.546;2022-10-22T00:15:51;76051.53;;;-147.06;100.00
54453;BME280;40363;52.270;10.546;2022-10-22T00:18:17;76037.13;;;-147.06;100.00
54453;BME280;40363;52.270;10.546;2022-10-22T00:20:44;76020.69;;;-147.06;100.00
54453;BME280;40363;52.270;10.546;2022-10-22T00:23:12;76020.69;;;-147.06;100.00
54453;BME280;40363;52.270;10.546;2022-10-22T00:25:38;76000.16;;;-147.06;100.00
54453;BME280;40363;52.270;10.546;2022-10-22T00:28:05;75991.91;;;-147.06;100.00
54453;BME280;40363;52.270;10.546;2022-10-22T00:30:32;75996.03;;;-147.06;100.00
54453;BME280;40363;52.270;10.546;2022-10-22T00:32:58;75991.91;;;-147.06;100.00
54453;BME280;40363;52.270;10.546;2022-10-22T00:35:25;75967.25;;;-147.06;100.00
54453;BME280;40363;52.270;10.546;2022-10-22T00:37:51;75969.31;;;-147.06;100.00
54453;BME280;40363;52.270;10.546;2022-10-22T00:40:20;75971.38;;;-147.06;100.00
54453;BME280;40363;52.270;10.546;2022-10-22T00:42:46;75965.22;;;-147.06;100.00
54453;BME280;40363;52.270;10.546;2022-10-22T00:45:21;75963.16;;;-147.06;100.00
54453;BME280;40363;52.270;10.546;2022-10-22T00:47:52;75959.03;;;-147.06;100.00
54453;BME280;40363;52.270;10.546;2022-10-22T00:50:23;75952.88;;;-147.06;100.00
54453;BME280;40363;52.270;10.546;2022-10-22T00:52:51;75959.03;;;-147.06;100.00
54453;BME280;40363;52.270;10.546;2022-10-22T00:55:22;75959.03;;;-147.06;100.00
54453;BME280;40363;52.270;10.546;2022-10-22T00:57:49;75963.16;;;-147.06;100.00
54453;BME280;40363;52.270;10.546;2022-10-22T01:00:18;75967.25;;;-147.06;100.00
54453;BME280;40363;52.270;10.546;2022-10-22T01:02:45;75981.66;;;-147.06;100.00
54453;BME280;40363;52.270;10.546;2022-10-22T01:05:12;75989.88;;;-147.06;100.00
54453;BME280;40363;52.270;10.546;2022-10-22T01:07:41;75973.44;;;-147.06;100.00
54453;BME280;40363;52.270;10.546;2022-10-22T01:10:18;75965.22;;;-147.06;100.00
54453;BME280;40363;52.270;10.546;2022-10-22T01:12:57;75977.53;;;-147.06;100.00
54453;BME280;40363;52.270;10.546;2022-10-22T01:15:32;75981.66;;;-147.06;100.00
54453;BME280;40363;52.270;10.546;2022-10-22T01:18:04;75969.31;;;-147.06;100.00
54453;BME280;40363;52.270;10.546;2022-10-22T01:20:57;75971.38;;;-147.06;100.00
54453;BME280;40363;52.270;10.546;2022-10-22T01:23:44;75971.38;;;-147.06;100.00
54453;BME280;40363;52.270;10.546;2022-10-22T01:26:21;75963.16;;;-147.06;100.00
54453;BME280;40363;52.270;10.546;2022-10-22T01:28:58;75967.25;;;-147.06;100.00
54453;BME280;40363;52.270;10.546;2022-10-22T01:31:29;75977.53;;;-147.06;100.00
54453;BME280;40363;52.270;10.546;2022-10-22T01:33:58;75993.97;;;-147.06;100.00
54453;BME280;40363;52.270;10.546;2022-10-22T01:36:27;75996.03;;;-147.06;100.00
54453;BME280;40363;52.270;10.546;2022-10-22T01:38:57;75985.75;;;-147.06;100.00
54453;BME280;40363;52.270;10.546;2022-10-22T01:41:26;75981.66;;;-147.06;100.00
54453;BME280;40363;52.270;10.546;2022-10-22T01:43:53;75975.47;;;-147.06;100.00
54453;BME280;40363;52.270;10.546;2022-10-22T01:46:21;75975.47;;;-147.06;100.00
54453;BME280;40363;52.270;10.546;2022-10-22T01:49:00;75969.31;;;-147.06;100.00
54453;BME280;40363;52.270;10.546;2022-10-22T01:51:44;75973.44;;;-147.06;100.00
54453;BME280;40363;52.270;10.546;2022-10-22T01:54:23;75973.44;;;-147.06;100.00
54453;BME280;40363;52.270;10.546;2022-10-22T01:56:57;75965.22;;;-147.06;100.00
54453;BME280;40363;52.270;10.546;2022-10-22T01:59:38;75971.38;;;-147.06;100.00
54453;BME280;40363;52.270;10.546;2022-10-22T02:02:20;75973.44;;;-147.06;100.00
54453;BME280;40363;52.270;10.546;2022-10-22T02:04:51;75971.38;;;-147.06;100.00
54453;BME280;40363;52.270;10.546;2022-10-22T02:07:22;75959.03;;;-147.06;100.00
54453;BME280;40363;52.270;10.546;2022-10-22T02:09:52;75957.00;;;-147.06;100.00
54453;BME280;40363;52.270;10.546;2022-10-22T02:12:21;75967.25;;;-147.06;100.00
54453;BME280;40363;52.270;10.546;2022-10-22T02:14:49;75971.38;;;-147.06;100.00
54453;BME280;40363;52.270;10.546;2022-10-22T02:17:20;75983.69;;;-147.06;100.00
54453;BME280;40363;52.270;10.546;2022-10-22T02:19:52;76000.16;;;-147.06;100.00
54453;BME280;40363;52.270;10.546;2022-10-22T02:22:19;76033.03;;;-147.06;100.00
54453;BME280;40363;52.270;10.546;2022-10-22T02:24:48;76024.81;;;-147.06;100.00
54453;BME280;40363;52.270;10.546;2022-10-22T02:27:19;76016.59;;;-147.06;100.00
54453;BME280;40363;52.270;10.546;2022-10-22T02:29:51;76018.63;;;-147.06;100.00
54453;BME280;40363;52.270;10.546;2022-10-22T02:32:25;76016.59;;;-147.06;100.00
54453;BME280;40363;52.270;10.546;2022-10-22T02:34:55;76022.75;;;-147.06;100.00
54453;BME280;40363;52.270;10.546;2022-10-22T02:37:23;76020.69;;;-147.06;100.00
54453;BME280;40363;52.270;10.546;2022-10-22T02:39:51;76024.81;;;-147.06;100.00
54453;BME280;40363;52.270;10.546;2022-10-22T02:42:19;76033.03;;;-147.06;100.00
54453;BME280;40363;52.270;10.546;2022-10-22T02:44:45;76035.09;;;-147.06;100.00
54453;BME280;40363;52.270;10.546;2022-10-22T02:47:12;76039.19;;;-147.06;100.00
54453;BME280;40363;52.270;10.546;2022-10-22T02:49:40;76049.47;;;-147.06;100.00
54453;BME280;40363;52.270;10.546;2022-10-22T02:52:06;76053.56;;;-147.06;100.00
54453;BME280;40363;52.270;10.546;2022-10-22T02:54:33;76059.75;;;-147.06;100.00
54453;BME280;40363;52.270;10.546;2022-10-22T02:57:00;76072.06;;;-147.06;100.00
54453;BME280;40363;52.270;10.546;2022-10-22T02:59:26;76074.13;;;-147.06;100.00
54453;BME280;40363;52.270;10.546;2022-10-22T03:01:53;76080.28;;;-147.06;100.00
54453;BME280;40363;52.270;10.546;2022-10-22T03:04:19;76078.25;;;-147.06;100.00
54453;BME280;40363;52.270;10.546;2022-10-22T03:06:47;76090.56;;;-147.06;100.00
54453;BME280;40363;52.270;10.546;2022-10-22T03:09:14;76088.50;;;-147.06;100.00
54453;BME280;40363;52.270;10.546;2022-10-22T03:11:41;76096.72;;;-147.06;100.00
54453;BME280;40363;52.270;10.546;2022-10-22T03:14:07;76107.00;;;-147.06;100.00
54453;BME280;40363;52.270;10.546;2022-10-22T03:16:34;76115.22;;;-147.06;100.00
54453;BME280;40363;52.270;10.546;2022-10-22T03:19:01;76113.19;;;-147.06;100.00
54453;BME280;40363;52.270;10.546;2022-10-22T03:21:31;76111.13;;;-147.06;100.00
54453;BME280;40363;52.270;10.546;2022-10-22T03:24:04;76109.06;;;-147.06;100.00
54453;BME280;40363;52.270;10.546;2022-10-22T03:26:33;76115.22;;;-147.06;100.00
54453;BME280;40363;52.270;10.546;2022-10-22T03:29:00;76115.22;;;-147.06;100.00
54453;BME280;40363;52.270;10.546;2022-10-22T03:31:27;76117.28;;;-147.06;100.00
54453;BME280;40363;52.270;10.546;2022-10-22T03:33:54;76111.13;;;-147.06;100.00
54453;BME280;40363;52.270;10.546;2022-10-22T03:36:20;76102.91;;;-147.06;100.00
54453;BME280;40363;52.270;10.546;2022-10-22T03:38:47;76104.97;;;-147.06;100.00
54453;BME280;40363;52.270;10.546;2022-10-22T03:41:15;76102.91;;;-147.06;100.00
54453;BME280;40363;52.270;10.546;2022-10-22T03:43:42;76107.00;;;-147.06;100.00
54453;BME280;40363;52.270;10.546;2022-10-22T03:46:13;76115.22;;;-147.06;100.00
54453;BME280;40363;52.270;10.546;2022-10-22T03:48:40;76127.56;;;-147.06;100.00
54453;BME280;40363;52.270;10.546;2022-10-22T03:51:06;76141.94;;;-147.06;100.00
54453;BME280;40363;52.270;10.546;2022-10-22T03:53:33;76156.34;;;-147.06;100.00
54453;BME280;40363;52.270;10.546;2022-10-22T03:56:00;76166.63;;;-147.06;100.00
54453;BME280;40363;52.270;10.546;2022-10-22T03:58:28;76166.63;;;-147.06;100.00
54453;BME280;40363;52.270;10.546;2022-10-22T04:00:55;76168.66;;;-147.06;100.00
54453;BME280;40363;52.270;10.546;2022-10-22T04:03:21;76168.66;;;-147.06;100.00
54453;BME280;40363;52.270;10.546;2022-10-22T04:05:48;76166.63;;;-147.06;100.00
54453;BME280;40363;52.270;10.546;2022-10-22T04:08:14;76160.44;;;-147.06;100.00
54453;BME280;40363;52.270;10.546;2022-10-22T04:10:41;76160.44;;;-147.06;100.00
54453;BME280;40363;52.270;10.546;2022-10-22T04:13:07;76160.44;;;-147.06;100.00
54453;BME280;40363;52.270;10.546;2022-10-22T04:15:35;76158.38;;;-147.06;100.00
54453;BME280;40363;52.270;10.546;2022-10-22T04:18:02;76168.66;;;-147.06;100.00
54453;BME280;40363;52.270;10.546;2022-10-22T04:20:29;76174.84;;;-147.06;100.00
54453;BME280;40363;52.270;10.546;2022-10-22T04:22:55;76176.88;;;-147.06;100.00
54453;BME280;40363;52.270;10.546;2022-10-22T04:25:22;76170.72;;;-147.06;100.00
54453;BME280;40363;52.270;10.546;2022-10-22T04:27:48;76168.66;;;-147.06;100.00
54453;BME280;40363;52.270;10.546;2022-10-22T04:30:15;76168.66;;;-147.06;100.00
54453;BME280;40363;52.270;10.546;2022-10-22T04:32:43;76168.66;;;-147.06;100.00
54453;BME280;40363;52.270;10.546;2022-10-22T04:35:10;76174.84;;;-147.06;100.00
54453;BME280;40363;52.270;10.546;2022-10-22T04:37:36;76176.88;;;-147.06;100.00
54453;BME280;40363;52.270;10.546;2022-10-22T04:40:03;76183.06;;;-147.06;100.00
54453;BME280;40363;52.270;10.546;2022-10-22T04:42:30;76185.09;;;-147.06;100.00
54453;BME280;40363;52.270;10.546;2022-10-22T04:44:57;76203.59;;;-147.06;100.00
54453;BME280;40363;52.270;10.546;2022-10-22T04:47:23;76207.72;;;-147.06;100.00
54453;BME280;40363;52.270;10.546;2022-10-22T04:49:51;76205.66;;;-147.06;100.00
54453;BME280;40363;52.270;10.546;2022-10-22T04:52:18;76207.72;;;-147.06;100.00
54453;BME280;40363;52.270;10.546;2022-10-22T04:54:45;76199.50;;;-147.06;100.00
54453;BME280;40363;52.270;10.546;2022-10-22T04:57:12;76209.78;;;-147.06;100.00
54453;BME280;40363;52.270;10.546;2022-10-22T04:59:39;76209.78;;;-147.06;100.00
54453;BME280;40363;52.270;10.546;2022-10-22T05:02:05;76218.00;;;-147.06;100.00
54453;BME280;40363;52.270;10.546;2022-10-22T05:04:32;76224.16;;;-147.06;100.00
54453;BME280;40363;52.270;10.546;2022-10-22T05:07:00;76226.22;;;-147.06;100.00
54453;BME280;40363;52.270;10.546;2022-10-22T05:09:27;76222.09;;;-147.06;100.00
54453;BME280;40363;52.270;10.546;2022-10-22T05:11:53;76222.09;;;-147.06;100.00
54453;BME280;40363;52.270;10.546;2022-10-22T05:14:23;76218.00;;;-147.06;100.00
54453;BME280;40363;52.270;10.546;2022-10-22T05:16:51;76211.81;;;-147.06;100.00
54453;BME280;40363;52.270;10.546;2022-10-22T05:19:21;76207.72;;;-147.06;100.00
54453;BME280;40363;52.270;10.546;2022-10-22T05:21:48;76207.72;;;-147.06;100.00
54453;BME280;40363;52.270;10.546;2022-10-22T05:24:16;76207.72;;;-147.06;100.00
54453;BME280;40363;52.270;10.546;2022-10-22T05:26:43;76211.81;;;-147.06;100.00
54453;BME280;40363;52.270;10.546;2022-10-22T05:29:10;76209.78;;;-147.06;100.00
54453;BME280;40363;52.270;10.546;2022-10-22T05:31:36;76203.59;;;-147.06;100.00
54453;BME280;40363;52.270;10.546;2022-10-22T05:34:03;76203.59;;;-147.06;100.00
54453;BME280;40363;52.270;10.546;2022-10-22T05:36:29;76191.28;;;-147.06;100.00
54453;BME280;40363;52.270;10.546;2022-10-22T05:38:56;76189.22;;;-147.06;100.00
54453;BME280;40363;52.270;10.546;2022-10-22T05:41:27;76189.22;;;-147.06;100.00
54453;BME280;40363;52.270;10.546;2022-10-22T05:43:54;76187.16;;;-147.06;100.00
54453;BME280;40363;52.270;10.546;2022-10-22T05:46:23;76197.44;;;-147.06;100.00
54453;BME280;40363;52.270;10.546;2022-10-22T05:48:50;76193.31;;;-147.06;100.00
54453;BME280;40363;52.270;10.546;2022-10-22T05:51:17;76187.16;;;-147.06;100.00
54453;BME280;40363;52.270;10.546;2022-10-22T05:53:43;76185.09;;;-147.06;100.00
54453;BME280;40363;52.270;10.546;2022-10-22T05:56:12;76189.22;;;-147.06;100.00
54453;BME280;40363;52.270;10.546;2022-10-22T05:58:40;76185.09;;;-147.06;100.00
54453;BME280;40363;52.270;10.546;2022-10-22T06:01:11;76183.06;;;-147.06;100.00
54453;BME280;40363;52.270;10.546;2022-10-22T06:03:54;76181.00;;;-147.06;100.00
54453;BME280;40363;52.270;10.546;2022-10-22T06:06:27;76185.09;;;-147.06;100.00
54453;BME280;40363;52.270;10.546;2022-10-22T06:08:55;76189.22;;;-147.06;100.00
54453;BME280;40363;52.270;10.546;2022-10-22T06:11:24;76185.09;;;-147.06;100.00
54453;BME280;40363;52.270;10.546;2022-10-22T06:13:52;76191.28;;;-147.06;100.00
54453;BME280;40363;52.270;10.546;2022-10-22T06:16:38;76189.22;;;-147.06;100.00
54453;BME280;40363;52.270;10.546;2022-10-22T06:19:05;76195.38;;;-147.06;100.00
54453;BME280;40363;52.270;10.546;2022-10-22T06:21:47;76187.16;;;-147.06;100.00
54453;BME280;40363;52.270;10.546;2022-10-22T06:24:16;76181.00;;;-147.06;100.00
54453;BME280;40363;52.270;10.546;2022-10-22T06:26:56;76172.78;;;-147.06;100.00
54453;BME280;40363;52.270;10.546;2022-10-22T06:29:27;76172.78;;;-147.06;100.00
54453;BME280;40363;52.270;10.546;2022-10-22T06:31:58;76172.78;;;-147.06;100.00
54453;BME280;40363;52.270;10.546;2022-10-22T06:34:28;76172.78;;;-147.06;100.00
54453;BME280;40363;52.270;10.546;2022-10-22T06:36:54;76181.00;;;-147.06;100.00
54453;BME280;40363;52.270;10.546;2022-10-22T06:39:21;76189.22;;;-147.06;100.00
54453;BME280;40363;52.270;10.546;2022-10-22T06:41:51;76205.66;;;-147.06;100.00
54453;BME280;40363;52.270;10.546;2022-10-22T06:44:19;76213.88;;;-147.06;100.00
54453;BME280;40363;52.270;10.546;2022-10-22T06:46:49;76215.94;;;-147.06;100.00
54453;BME280;40363;52.270;10.546;2022-10-22T06:49:17;76213.88;;;-147.06;100.00
54453;BME280;40363;52.270;10.546;2022-10-22T06:51:47;76205.66;;;-147.06;100.00
54453;BME280;40363;52.270;10.546;2022-10-22T06:54:17;76191.28;;;-147.06;100.00
54453;BME280;40363;52.270;10.546;2022-10-22T06:57:06;76185.09;;;-147.06;100.00
54453;BME280;40363;52.270;10.546;2022-10-22T06:59:32;76191.28;;;-147.06;100.00
54453;BME280;40363;52.270;10.546;2022-10-22T07:02:09;76183.06;;;-147.06;100.00
54453;BME280;40363;52.270;10.546;2022-10-22T07:04:42;76176.88;;;-147.06;100.00
54453;BME280;40363;52.270;10.546;2022-10-22T07:07:08;76178.94;;;-147.06;100.00
54453;BME280;40363;52.270;10.546;2022-10-22T07:09:43;76185.09;;;-147.06;100.00
54453;BME280;40363;52.270;10.546;2022-10-22T07:12:22;76168.66;;;-147.06;100.00
54453;BME280;40363;52.270;10.546;2022-10-22T07:14:51;76164.56;;;-147.06;100.00
54453;BME280;40363;52.270;10.546;2022-10-22T07:17:22;76160.44;;;-147.06;100.00
54453;BME280;40363;52.270;10.546;2022-10-22T07:19:48;76148.13;;;-147.06;100.00
54453;BME280;40363;52.270;10.546;2022-10-22T07:22:17;76139.91;;;-147.06;100.00
54453;BME280;40363;52.270;10.546;2022-10-22T07:24:44;76146.06;;;-147.06;100.00
54453;BME280;40363;52.270;10.546;2022-10-22T07:27:13;76139.91;;;-147.06;100.00
54453;BME280;40363;52.270;10.546;2022-10-22T07:29:40;76141.94;;;-147.06;100.00
54453;BME280;40363;52.270;10.546;2022-10-22T07:32:06;76137.84;;;-147.06;100.00
54453;BME280;40363;52.270;10.546;2022-10-22T07:34:36;76125.50;;;-147.06;100.00
54453;BME280;40363;52.270;10.546;2022-10-22T07:37:03;76111.13;;;-147.06;100.00
54453;BME280;40363;52.270;10.546;2022-10-22T07:39:30;76111.13;;;-147.06;100.00
54453;BME280;40363;52.270;10.546;2022-10-22T07:41:59;76109.06;;;-147.06;100.00
54453;BME280;40363;52.270;10.546;2022-10-22T07:44:26;76094.69;;;-147.06;100.00
54453;BME280;40363;52.270;10.546;2022-10-22T07:46:52;76078.25;;;-147.06;100.00
54453;BME280;40363;52.270;10.546;2022-10-22T07:49:19;76041.25;;;-147.06;100.00
54453;BME280;40363;52.270;10.546;2022-10-22T07:51:47;76002.19;;;-147.06;100.00
54453;BME280;40363;52.270;10.546;2022-10-22T07:54:31;75981.66;;;-147.06;100.00
54453;BME280;40363;52.270;10.546;2022-10-22T07:56:57;75973.44;;;-147.06;100.00
54453;BME280;40363;52.270;10.546;2022-10-22T07:59:29;75963.16;;;-147.06;100.00
54453;BME280;40363;52.270;10.546;2022-10-22T08:02:05;75979.59;;;-147.06;100.00
54453;BME280;40363;52.270;10.546;2022-10-22T08:04:32;75991.91;;;-147.06;100.00
54453;BME280;40363;52.270;10.546;2022-10-22T08:07:00;76002.19;;;-147.06;100.00
54453;BME280;40363;52.270;10.546;2022-10-22T08:09:27;76012.47;;;-147.06;100.00
54453;BME280;40363;52.270;10.546;2022-10-22T08:11:54;76004.25;;;-147.06;100.00
54453;BME280;40363;52.270;10.546;2022-10-22T08:14:23;75991.91;;;-147.06;100.00
54453;BME280;40363;52.270;10.546;2022-10-22T08:16:52;75909.72;;;-147.06;99.06
54453;BME280;40363;52.270;10.546;2022-10-22T08:19:28;75782.31;;;-147.06;94.28
54453;BME280;40363;52.270;10.546;2022-10-22T08:21:56;75706.28;;;-147.06;89.31
54453;BME280;40363;52.270;10.546;2022-10-22T08:24:27;75644.63;;;-147.06;86.68
54453;BME280;40363;52.270;10.546;2022-10-22T08:26:57;75646.69;;;-147.06;85.23
54453;BME280;40363;52.270;10.546;2022-10-22T08:29:26;75630.25;;;-147.06;84.49
54453;BME280;40363;52.270;10.546;2022-10-22T08:31:53;75605.56;;;-147.06;82.90
54453;BME280;40363;52.270;10.546;2022-10-22T08:34:23;75624.06;;;-147.06;83.31
54453;BME280;40363;52.270;10.546;2022-10-22T08:36:50;75652.84;;;-147.06;84.47
54453;BME280;40363;52.270;10.546;2022-10-22T08:39:17;75597.34;;;-147.06;83.18
54453;BME280;40363;52.270;10.546;2022-10-22T08:41:50;75525.44;;;-147.06;80.46
54453;BME280;40363;52.270;10.546;2022-10-22T08:44:41;75511.06;;;-147.06;79.85
54453;BME280;40363;52.270;10.546;2022-10-22T08:47:40;75449.41;;;-147.06;77.87
54453;BME280;40363;52.270;10.546;2022-10-22T08:50:18;75441.19;;;-147.06;76.41
54453;BME280;40363;52.270;10.546;2022-10-22T08:52:50;75437.06;;;-147.06;76.70
54453;BME280;40363;52.270;10.546;2022-10-22T08:55:23;75435.03;;;-147.06;76.59
54453;BME280;40363;52.270;10.546;2022-10-22T08:58:09;75408.31;;;-147.06;75.75
54453;BME280;40363;52.270;10.546;2022-10-22T09:00:57;75381.59;;;-147.06;75.27
54453;BME280;40363;52.270;10.546;2022-10-22T09:03:51;75412.41;;;-147.06;74.89
54453;BME280;40363;52.270;10.546;2022-10-22T09:06:24;75412.41;;;-147.06;75.34
54453;BME280;40363;52.270;10.546;2022-10-22T09:08:52;75406.25;;;-147.06;75.32
54453;BME280;40363;52.270;10.546;2022-10-22T09:11:29;75379.53;;;-147.06;74.30
54453;BME280;40363;52.270;10.546;2022-10-22T09:14:02;75375.44;;;-147.06;73.86
54453;BME280;40363;52.270;10.546;2022-10-22T09:16:38;75371.31;;;-147.06;73.64
54453;BME280;40363;52.270;10.546;2022-10-22T09:19:18;75385.72;;;-147.06;72.97
54453;BME280;40363;52.270;10.546;2022-10-22T09:21:53;75395.97;;;-147.06;74.25
54453;BME280;40363;52.270;10.546;2022-10-22T09:24:35;75354.88;;;-147.06;73.26
54453;BME280;40363;52.270;10.546;2022-10-22T09:27:09;75385.72;;;-147.06;74.26
54453;BME280;40363;52.270;10.546;2022-10-22T09:29:41;75371.31;;;-147.06;73.63
54453;BME280;40363;52.270;10.546;2022-10-22T09:32:08;75371.31;;;-147.06;73.45
54453;BME280;40363;52.270;10.546;2022-10-22T09:34:39;75350.78;;;-147.06;72.64
54453;BME280;40363;52.270;10.546;2022-10-22T09:37:07;75359.00;;;-147.06;73.31
54453;BME280;40363;52.270;10.546;2022-10-22T09:39:42;75350.78;;;-147.06;72.85
54453;BME280;40363;52.270;10.546;2022-10-22T09:42:15;75354.88;;;-147.06;72.93
54453;BME280;40363;52.270;10.546;2022-10-22T09:44:50;75350.78;;;-147.06;72.70
54453;BME280;40363;52.270;10.546;2022-10-22T09:47:39;75354.88;;;-147.06;72.36
54453;BME280;40363;52.270;10.546;2022-10-22T09:50:19;75328.19;;;-147.06;71.29
54453;BME280;40363;52.270;10.546;2022-10-22T09:52:53;75326.13;;;-147.06;71.46
54453;BME280;40363;52.270;10.546;2022-10-22T09:55:21;75305.56;;;-147.06;70.57
54453;BME280;40363;52.270;10.546;2022-10-22T09:57:55;75289.13;;;-147.06;70.76
54453;BME280;40363;52.270;10.546;2022-10-22T10:00:25;75264.47;;;-147.06;69.70
54453;BME280;40363;52.270;10.546;2022-10-22T10:02:57;75227.50;;;-147.06;68.21
54453;BME280;40363;52.270;10.546;2022-10-22T10:05:32;75215.16;;;-147.06;67.96
54453;BME280;40363;52.270;10.546;2022-10-22T10:08:07;75241.88;;;-147.06;68.39
54453;BME280;40363;52.270;10.546;2022-10-22T10:10:40;75241.88;;;-147.06;66.56
54453;BME280;40363;52.270;10.546;2022-10-22T10:13:35;75227.50;;;-147.06;66.10
54453;BME280;40363;52.270;10.546;2022-10-22T10:16:15;75217.22;;;-147.06;64.81
54453;BME280;40363;52.270;10.546;2022-10-22T10:19:00;75200.78;;;-147.06;64.91
54453;BME280;40363;52.270;10.546;2022-10-22T10:21:49;75211.06;;;-147.06;64.79
54453;BME280;40363;52.270;10.546;2022-10-22T10:24:25;75231.59;;;-147.06;64.87
54453;BME280;40363;52.270;10.546;2022-10-22T10:26:59;75233.66;;;-147.06;63.85
54453;BME280;40363;52.270;10.546;2022-10-22T10:29:40;75243.94;;;-147.06;64.11
54453;BME280;40363;52.270;10.546;2022-10-22T10:32:46;75264.47;;;-147.06;65.19
54453;BME280;40363;52.270;10.546;2022-10-22T10:35:30;75264.47;;;-147.06;64.86
54453;BME280;40363;52.270;10.546;2022-10-22T10:38:31;75235.72;;;-147.06;64.05
54453;BME280;40363;52.270;10.546;2022-10-22T10:41:25;75241.88;;;-147.06;64.04
54453;BME280;40363;52.270;10.546;2022-10-22T10:44:24;75239.81;;;-147.06;64.08
54453;BME280;40363;52.270;10.546;2022-10-22T10:47:08;75291.19;;;-147.06;64.53
54453;BME280;40363;52.270;10.546;2022-10-22T10:49:42;75289.13;;;-147.06;64.92
54453;BME280;40363;52.270;10.546;2022-10-22T10:52:16;75367.22;;;-147.06;66.75
54453;BME280;40363;52.270;10.546;2022-10-22T10:54:58;75455.56;;;-147.06;69.41
54453;BME280;40363;52.270;10.546;2022-10-22T10:57:43;75509.00;;;-147.06;71.09
54453;BME280;40363;52.270;10.546;2022-10-22T11:00:26;75531.59;;;-147.06;72.32
54453;BME280;40363;52.270;10.546;2022-10-22T11:07:00;75572.69;;;-147.06;73.46
54453;BME280;40363;52.270;10.546;2022-10-22T11:09:33;75574.75;;;-147.06;73.55
54453;BME280;40363;52.270;10.546;2022-10-22T11:14:04;75605.56;;;-147.06;73.65
54453;BME280;40363;52.270;10.546;2022-10-22T11:16:13;75609.69;;;-147.06;74.45
54453;BME280;40363;52.270;10.546;2022-10-22T11:18:44;75615.84;;;-147.06;74.74
54453;BME280;40363;52.270;10.546;2022-10-22T11:21:21;75609.69;;;-147.06;74.39
54453;BME280;40363;52.270;10.546;2022-10-22T11:23:57;75603.53;;;-147.06;74.33
54453;BME280;40363;52.270;10.546;2022-10-22T11:26:35;75599.41;;;-147.06;73.79
54453;BME280;40363;52.270;10.546;2022-10-22T11:29:08;75597.34;;;-147.06;73.75
54453;BME280;40363;52.270;10.546;2022-10-22T11:31:39;75585.03;;;-147.06;73.63
54453;BME280;40363;52.270;10.546;2022-10-22T11:34:14;75572.69;;;-147.06;73.79
54453;BME280;40363;52.270;10.546;2022-10-22T11:36:48;75568.59;;;-147.06;74.04
54453;BME280;40363;52.270;10.546;2022-10-22T11:39:41;75568.59;;;-147.06;74.68
54453;BME280;40363;52.270;10.546;2022-10-22T11:42:10;75556.25;;;-147.06;74.07
54453;BME280;40363;52.270;10.546;2022-10-22T11:44:49;75564.47;;;-147.06;74.40
54453;BME280;40363;52.270;10.546;2022-10-22T11:47:25;75562.44;;;-147.06;74.17
54453;BME280;40363;52.270;10.546;2022-10-22T11:49:57;75564.47;;;-147.06;73.86
54453;BME280;40363;52.270;10.546;2022-10-22T11:52:27;75552.16;;;-147.06;73.40
54453;BME280;40363;52.270;10.546;2022-10-22T11:58:32;75566.53;;;-147.06;73.26
54453;BME280;40363;52.270;10.546;2022-10-22T12:01:26;75582.97;;;-147.06;72.87
54453;BME280;40363;52.270;10.546;2022-10-22T12:04:22;75603.53;;;-147.06;73.93
54453;BME280;40363;52.270;10.546;2022-10-22T12:07:34;75609.69;;;-147.06;73.60
54453;BME280;40363;52.270;10.546;2022-10-22T12:10:21;75591.19;;;-147.06;73.42
54453;BME280;40363;52.270;10.546;2022-10-22T12:13:10;75578.88;;;-147.06;72.52
54453;BME280;40363;52.270;10.546;2022-10-22T12:15:50;75578.88;;;-147.06;72.99
54453;BME280;40363;52.270;10.546;2022-10-22T12:18:42;75578.88;;;-147.06;73.83
54453;BME280;40363;52.270;10.546;2022-10-22T12:21:25;75580.91;;;-147.06;73.68
54453;BME280;40363;52.270;10.546;2022-10-22T12:23:56;75593.25;;;-147.06;74.51
54453;BME280;40363;52.270;10.546;2022-10-22T12:26:25;75591.19;;;-147.06;74.47
54453;BME280;40363;52.270;10.546;2022-10-22T12:28:59;75591.19;;;-147.06;74.87
54453;BME280;40363;52.270;10.546;2022-10-22T12:31:47;75603.53;;;-147.06;75.06
54453;BME280;40363;52.270;10.546;2022-10-22T12:34:22;75611.75;;;-147.06;75.50
54453;BME280;40363;52.270;10.546;2022-10-22T12:36:55;75622.03;;;-147.06;75.29
54453;BME280;40363;52.270;10.546;2022-10-22T12:39:25;75622.03;;;-147.06;75.60
54453;BME280;40363;52.270;10.546;2022-10-22T12:41:53;75599.41;;;-147.06;74.74
54453;BME280;40363;52.270;10.546;2022-10-22T12:44:19;75593.25;;;-147.06;74.28
54453;BME280;40363;52.270;10.546;2022-10-22T12:46:49;75572.69;;;-147.06;73.90
54453;BME280;40363;52.270;10.546;2022-10-22T12:49:17;75556.25;;;-147.06;72.83
54453;BME280;40363;52.270;10.546;2022-10-22T12:51:52;75548.03;;;-147.06;72.51
54453;BME280;40363;52.270;10.546;2022-10-22T12:54:24;75523.38;;;-147.06;72.29
54453;BME280;40363;52.270;10.546;2022-10-22T12:56:53;75509.00;;;-147.06;72.45